Time;durP1;ratioP1;P1;durP2;ratioP2;P2;SDS_P1;SDS_P2;PMS_P1;PMS_P2;Temp;Humidity;BMP_temperature;BMP_pressure;BME280_temperature;BME280_humidity;BME280_pressure;Samples;Min_cycle;Max_cycle;Signal;HPM_P1;HPM_P2
2022/09/25 00:01:59;;;;;;;12.00;10.70;;;;;;;16.05;69.65;97069.78;5021551;28;20188;-73
2022/09/25 00:04:24;;;;;;;11.97;10.67;;;;;;;16.03;69.41;97071.00;5017469;28;20299;-74
2022/09/25 00:06:49;;;;;;;11.37;9.57;;;;;;;16.05;69.25;97069.78;5019990;28;20262;-73
2022/09/25 00:09:19;;;;;;;11.30;9.70;;;;;;;16.08;69.10;97069.41;5018636;28;20279;-75
2022/09/25 00:11:44;;;;;;;11.97;10.77;;;;;;;16.12;69.08;97067.19;5020961;28;20254;-72
2022/09/25 00:14:10;;;;;;;13.77;10.93;;;;;;;16.12;69.17;97070.69;5020180;28;20455;-75
2022/09/25 00:16:35;;;;;;;13.20;11.10;;;;;;;16.15;69.17;97076.56;5017373;28;20198;-74
2022/09/25 00:21:50;;;;;;;11.47;9.63;;;;;;;16.20;68.98;97066.25;5019462;28;20180;-74
2022/09/25 00:24:15;;;;;;;12.70;10.17;;;;;;;16.18;68.66;97065.63;5023914;28;20463;-75
2022/09/25 00:26:41;;;;;;;13.80;10.97;;;;;;;16.04;68.80;97068.16;5017170;28;20454;-75
2022/09/25 00:29:09;;;;;;;12.37;9.77;;;;;;;16.01;68.72;97057.94;5021612;28;20619;-76
2022/09/25 00:31:34;;;;;;;11.43;9.80;;;;;;;16.02;68.85;97067.50;5022350;28;20430;-75
2022/09/25 00:34:02;;;;;;;11.63;10.03;;;;;;;16.04;68.77;97060.22;5028900;28;20450;-74
2022/09/25 00:36:28;;;;;;;14.03;10.70;;;;;;;16.07;68.73;97057.19;5021576;28;20219;-76
2022/09/25 00:38:53;;;;;;;11.13;9.87;;;;;;;15.98;69.07;97053.06;5022870;28;20453;-73
2022/09/25 00:41:21;;;;;;;11.50;10.07;;;;;;;15.94;69.12;97051.81;5024992;28;20427;-74
2022/09/25 00:43:49;;;;;;;11.73;10.53;;;;;;;15.95;68.93;97048.16;5028794;28;20223;-74
2022/09/25 00:46:21;;;;;;;11.77;9.03;;;;;;;15.90;68.91;97040.81;5023410;28;20435;-76
2022/09/25 00:49:02;;;;;;;13.40;10.30;;;;;;;15.92;68.66;97044.06;5029589;28;20808;-73
2022/09/25 00:51:33;;;;;;;12.47;10.97;;;;;;;15.89;68.74;97039.16;5025045;28;20457;-73
2022/09/25 00:54:00;;;;;;;12.37;11.10;;;;;;;15.91;68.89;97042.44;5018352;28;20440;-72
2022/09/25 00:56:28;;;;;;;13.60;11.60;;;;;;;15.91;69.04;97034.50;5022239;28;20892;-73
2022/09/25 00:58:53;;;;;;;14.80;11.60;;;;;;;15.95;69.17;97037.59;5020064;28;20439;-74
2022/09/25 01:01:21;;;;;;;16.20;14.17;;;;;;;15.94;68.99;97030.66;5020921;28;20437;-76
2022/09/25 01:03:46;;;;;;;14.40;12.37;;;;;;;15.86;68.88;97023.69;5023954;28;20268;-73
2022/09/25 01:06:13;;;;;;;14.67;11.90;;;;;;;15.84;69.32;97020.38;5014845;28;20451;-72
2022/09/25 01:08:40;;;;;;;12.30;11.00;;;;;;;15.80;69.53;97025.22;5023035;28;20241;-73
2022/09/25 01:11:05;;;;;;;11.43;9.97;;;;;;;15.72;69.33;97017.44;5013325;28;20436;-73
2022/09/25 01:13:31;;;;;;;14.03;11.40;;;;;;;15.68;69.61;97020.66;5020388;28;20829;-73
2022/09/25 01:15:56;;;;;;;12.17;10.97;;;;;;;15.75;69.43;97022.31;5016612;28;20212;-74
2022/09/25 01:18:28;;;;;;;15.83;12.57;;;;;;;15.74;69.42;97026.00;5026132;28;20192;-74
2022/09/25 01:21:04;;;;;;;16.97;13.70;;;;;;;15.81;69.82;97029.50;5025003;28;20194;-73
2022/09/25 01:23:37;;;;;;;14.93;13.30;;;;;;;15.80;69.88;97021.78;5022314;28;20454;-74
2022/09/25 01:26:33;;;;;;;16.43;14.13;;;;;;;15.85;69.92;97016.75;5022220;28;20432;-74
2022/09/25 01:29:02;;;;;;;18.30;14.10;;;;;;;15.90;69.79;97019.66;5015212;28;20423;-75
2022/09/25 01:31:52;;;;;;;14.80;12.20;;;;;;;15.85;70.00;97023.88;5026142;28;20431;-72
2022/09/25 01:34:41;;;;;;;15.83;11.33;;;;;;;15.91;70.02;97025.75;5021848;28;20446;-75
2022/09/25 01:37:38;;;;;;;16.63;12.57;;;;;;;15.93;69.99;97031.66;5022965;28;20471;-74
2022/09/25 01:40:19;;;;;;;20.80;16.33;;;;;;;15.89;70.25;97028.59;5004758;28;20435;-75
2022/09/25 01:42:50;;;;;;;19.17;15.97;;;;;;;15.92;70.40;97037.97;5033272;28;21016;-72
2022/09/25 01:45:23;;;;;;;16.23;14.53;;;;;;;15.89;70.63;97035.69;5018067;28;20463;-76
2022/09/25 01:47:50;;;;;;;18.50;15.67;;;;;;;15.93;70.50;97029.84;5042169;28;20541;-74
2022/09/25 01:50:25;;;;;;;19.53;16.10;;;;;;;15.97;70.37;97032.94;5017327;28;20436;-74
2022/09/25 01:52:53;;;;;;;16.93;14.37;;;;;;;16.01;70.35;97028.88;5022189;28;21013;-73
2022/09/25 01:55:24;;;;;;;17.17;15.37;;;;;;;16.03;70.42;97031.34;5016973;28;20787;-73
2022/09/25 01:58:07;;;;;;;14.63;13.03;;;;;;;16.04;70.25;97033.78;5017953;28;20484;-73
2022/09/25 02:00:35;;;;;;;15.50;13.50;;;;;;;16.03;70.22;97029.50;5033715;28;20441;-73
2022/09/25 02:03:08;;;;;;;15.00;13.10;;;;;;;16.04;70.23;97028.50;5038205;28;20517;-73
2022/09/25 02:05:36;;;;;;;15.53;12.87;;;;;;;16.04;70.37;97025.84;5022933;28;20562;-73
2022/09/25 02:08:05;;;;;;;15.83;13.03;;;;;;;16.05;70.19;97030.13;5024676;28;20473;-73
2022/09/25 02:10:36;;;;;;;16.93;12.47;;;;;;;16.04;70.23;97023.22;5017166;28;20911;-73
2022/09/25 02:13:08;;;;;;;17.40;12.57;;;;;;;16.08;70.26;97026.28;5036468;28;20427;-73
2022/09/25 02:15:38;;;;;;;13.97;12.30;;;;;;;16.05;70.09;97021.41;5014655;28;20967;-73
2022/09/25 02:21:08;;;;;;;16.13;12.60;;;;;;;16.06;70.10;97023.84;5029550;28;20905;-73
2022/09/25 02:23:52;;;;;;;14.67;12.90;;;;;;;16.05;70.29;97019.56;5027338;28;20454;-76
2022/09/25 02:26:29;;;;;;;14.27;12.27;;;;;;;16.05;70.04;97027.50;5019995;28;20829;-75
2022/09/25 02:28:55;;;;;;;15.23;12.50;;;;;;;16.06;69.90;97023.84;5025551;28;21002;-73
2022/09/25 02:31:23;;;;;;;15.10;13.50;;;;;;;16.06;69.83;97021.19;5020972;28;20801;-72
2022/09/25 02:33:49;;;;;;;20.30;12.50;;;;;;;16.07;70.19;97022.00;5019480;28;20937;-72
2022/09/25 02:36:17;;;;;;;14.47;12.97;;;;;;;16.07;70.01;97022.84;5020834;28;20478;-76
2022/09/25 02:38:44;;;;;;;13.93;12.47;;;;;;;16.08;69.96;97019.19;5020045;28;20697;-73
2022/09/25 02:41:28;;;;;;;14.60;13.00;;;;;;;16.05;70.22;97018.75;5027912;28;20449;-73
2022/09/25 02:44:11;;;;;;;13.63;11.83;;;;;;;16.05;69.83;97010.84;5019032;28;20537;-74
2022/09/25 02:47:12;;;;;;;14.00;12.43;;;;;;;16.00;70.01;97014.06;5014038;28;20801;-75
2022/09/25 02:49:45;;;;;;;22.33;12.70;;;;;;;16.00;70.04;97006.13;5019732;28;20427;-75
2022/09/25 02:52:15;;;;;;;15.97;13.27;;;;;;;15.92;69.74;97007.06;5018212;28;20496;-74
2022/09/25 02:54:56;;;;;;;15.87;13.07;;;;;;;15.94;70.09;97014.81;5017070;28;20451;-73
2022/09/25 02:57:24;;;;;;;17.50;12.90;;;;;;;15.93;70.24;97007.88;5017585;28;20446;-74
2022/09/25 02:59:53;;;;;;;13.63;12.23;;;;;;;15.93;70.31;97011.34;5019279;28;20431;-74
2022/09/25 03:02:20;;;;;;;16.80;13.83;;;;;;;16.00;70.66;97008.78;5018167;28;20438;-73
2022/09/25 03:04:47;;;;;;;15.00;12.30;;;;;;;16.05;70.36;97005.53;5023684;28;20470;-76
2022/09/25 03:07:14;;;;;;;14.00;12.60;;;;;;;16.07;70.28;97009.63;5010581;28;20443;-76
2022/09/25 03:09:45;;;;;;;15.63;13.00;;;;;;;16.06;70.16;97007.97;5027482;28;20433;-75
2022/09/25 03:12:11;;;;;;;15.20;12.40;;;;;;;16.05;70.01;97011.63;5011678;28;20431;-75
2022/09/25 03:14:37;;;;;;;13.43;12.03;;;;;;;16.07;70.15;97016.72;5024601;28;20446;-75
2022/09/25 03:17:03;;;;;;;14.40;12.83;;;;;;;16.07;70.18;97014.91;5012772;28;20423;-74
2022/09/25 03:19:29;;;;;;;18.27;12.73;;;;;;;16.08;70.08;97026.28;5032650;28;20180;-74
2022/09/25 03:21:55;;;;;;;15.40;12.37;;;;;;;16.09;70.19;97023.47;5028540;28;20438;-73
2022/09/25 03:24:21;;;;;;;15.37;12.90;;;;;;;16.10;70.23;97027.75;5020495;28;20222;-74
2022/09/25 03:26:46;;;;;;;15.07;13.03;;;;;;;16.10;70.28;97030.41;5030662;28;20225;-74
2022/09/25 03:29:13;;;;;;;16.80;13.23;;;;;;;16.12;70.34;97025.75;5019166;28;20279;-74
2022/09/25 03:31:41;;;;;;;15.13;13.17;;;;;;;16.12;70.36;97024.91;5017047;28;20188;-74
2022/09/25 03:34:07;;;;;;;16.67;13.50;;;;;;;16.13;70.46;97034.47;5001563;28;20453;-74
2022/09/25 03:36:35;;;;;;;14.20;12.50;;;;;;;16.12;70.54;97022.25;5021822;28;20434;-74
2022/09/25 03:39:01;;;;;;;16.60;13.60;;;;;;;16.08;70.79;97021.84;5021199;28;20419;-74
2022/09/25 03:41:29;;;;;;;13.87;12.40;;;;;;;16.10;70.79;97026.91;5031593;28;20435;-75
2022/09/25 03:43:55;;;;;;;16.83;12.77;;;;;;;16.13;70.68;97008.84;5023597;28;20243;-73
2022/09/25 03:46:25;;;;;;;14.20;12.63;;;;;;;16.12;70.57;97009.03;5024644;28;20973;-76
2022/09/25 03:48:52;;;;;;;18.87;13.53;;;;;;;16.15;70.64;97005.19;5032801;28;20446;-74
2022/09/25 03:51:18;;;;;;;17.17;12.93;;;;;;;16.13;70.47;97000.91;5019316;28;20430;-73
2022/09/25 03:53:44;;;;;;;16.23;12.43;;;;;;;16.12;70.58;96999.31;5025484;28;20814;-73
2022/09/25 03:56:19;;;;;;;15.23;13.03;;;;;;;16.11;70.65;97000.31;5021915;28;20457;-74
2022/09/25 03:58:45;;;;;;;13.77;12.03;;;;;;;16.09;70.76;97002.31;5023383;28;20426;-73
2022/09/25 04:01:11;;;;;;;18.83;13.40;;;;;;;16.10;70.51;97001.31;5025772;28;20517;-74
2022/09/25 04:03:38;;;;;;;14.13;12.63;;;;;;;16.10;70.55;97003.97;5029242;28;20442;-72
2022/09/25 04:06:05;;;;;;;15.57;12.97;;;;;;;16.09;70.49;96997.03;5023773;28;20517;-73
2022/09/25 04:08:32;;;;;;;18.57;13.57;;;;;;;16.10;70.54;97003.13;5022499;28;20422;-74
2022/09/25 04:10:58;;;;;;;14.40;11.97;;;;;;;16.11;70.66;96999.47;5028507;28;20438;-74
2022/09/25 04:13:25;;;;;;;15.33;13.43;;;;;;;16.13;70.69;97003.56;5022061;28;20512;-74
2022/09/25 04:15:51;;;;;;;17.83;13.30;;;;;;;16.13;70.76;96998.25;5028506;28;20422;-76
2022/09/25 04:18:17;;;;;;;15.07;13.37;;;;;;;16.13;70.60;97003.56;5006375;28;20431;-74
2022/09/25 04:20:42;;;;;;;15.50;12.93;;;;;;;16.12;70.63;97007.22;5029289;28;20644;-73
2022/09/25 04:23:08;;;;;;;13.70;12.03;;;;;;;16.13;70.64;97003.56;5032213;28;20564;-72
2022/09/25 04:25:33;;;;;;;14.87;12.37;;;;;;;16.15;70.73;97002.53;5031359;28;20307;-73
2022/09/25 04:27:59;;;;;;;14.40;12.90;;;;;;;16.11;70.71;97010.06;5032111;28;20183;-75
2022/09/25 04:30:26;;;;;;;16.13;12.37;;;;;;;16.09;70.50;97018.19;5030082;28;20589;-75
2022/09/25 04:35:36;;;;;;;48.47;40.70;;;;;;;16.04;70.71;97012.63;5022347;28;20434;-74
2022/09/25 04:38:02;;;;;;;56.57;47.70;;;;;;;16.01;71.13;97014.84;5031730;28;20649;-73
2022/09/25 04:40:28;;;;;;;48.23;41.47;;;;;;;16.03;70.97;97016.28;5029001;28;20184;-74
2022/09/25 04:42:57;;;;;;;43.00;33.60;;;;;;;16.06;70.92;97010.63;5033623;28;20194;-73
2022/09/25 04:45:25;;;;;;;36.63;29.30;;;;;;;16.09;70.88;97012.91;5031870;28;20616;-74
2022/09/25 04:47:52;;;;;;;28.40;25.20;;;;;;;16.06;70.90;97009.81;5029022;28;20793;-74
2022/09/25 04:50:19;;;;;;;27.83;23.97;;;;;;;16.07;70.98;97006.97;5030479;28;20513;-73
2022/09/25 04:52:44;;;;;;;25.10;20.17;;;;;;;16.08;70.91;97000.69;5032521;28;21143;-74
2022/09/25 04:55:10;;;;;;;23.60;20.23;;;;;;;16.05;71.10;97010.84;5027200;28;20530;-75
2022/09/25 04:57:35;;;;;;;20.00;17.53;;;;;;;16.02;70.89;97001.44;5031596;28;20180;-75
2022/09/25 05:00:01;;;;;;;14.60;13.10;;;;;;;15.93;71.18;97003.44;5031394;28;20643;-77
2022/09/25 05:02:27;;;;;;;16.80;12.83;;;;;;;15.94;71.25;97004.22;5031786;28;20180;-73
2022/09/25 05:04:53;;;;;;;15.47;13.33;;;;;;;15.97;71.00;97009.16;5024031;28;20234;-74
2022/09/25 05:07:18;;;;;;;15.63;13.03;;;;;;;15.97;71.07;97009.94;5029705;28;20510;-73
2022/09/25 05:09:44;;;;;;;16.90;13.67;;;;;;;15.99;70.98;97015.06;5032191;28;20760;-73
2022/09/25 05:12:09;;;;;;;15.23;13.50;;;;;;;15.99;71.04;97007.13;5030898;28;20219;-73
2022/09/25 05:14:35;;;;;;;16.47;14.70;;;;;;;15.99;71.16;97015.06;5031646;28;20211;-74
2022/09/25 05:17:00;;;;;;;16.90;13.23;;;;;;;16.01;71.00;97010.38;5031118;28;20190;-76
2022/09/25 05:19:26;;;;;;;16.80;13.70;;;;;;;16.06;70.90;97028.31;5039865;28;20592;-74
2022/09/25 05:21:52;;;;;;;16.87;14.77;;;;;;;16.03;71.01;97018.94;5032734;28;20191;-74
2022/09/25 05:24:18;;;;;;;16.43;14.23;;;;;;;16.03;71.06;97018.13;5029735;28;20985;-74
2022/09/25 05:26:43;;;;;;;17.10;14.40;;;;;;;16.05;70.43;97022.22;5030649;28;20633;-74
2022/09/25 05:29:09;;;;;;;19.33;15.97;;;;;;;16.08;70.99;97024.47;5030662;28;20403;-75
2022/09/25 05:31:35;;;;;;;19.70;16.87;;;;;;;16.07;70.96;97017.56;5030197;28;20199;-74
2022/09/25 05:34:01;;;;;;;20.67;17.37;;;;;;;16.09;70.85;97023.47;5020437;28;20454;-74
2022/09/25 05:36:27;;;;;;;21.13;16.53;;;;;;;16.10;71.01;97025.09;5024843;28;20520;-74
2022/09/25 05:38:53;;;;;;;18.77;16.10;;;;;;;16.10;71.06;97022.47;5023942;28;20237;-73
2022/09/25 05:41:18;;;;;;;18.27;16.37;;;;;;;16.11;71.21;97024.09;5029446;28;20999;-73
2022/09/25 05:43:47;;;;;;;21.27;16.27;;;;;;;16.09;71.11;97022.63;5025072;28;20208;-73
2022/09/25 05:46:14;;;;;;;19.17;16.17;;;;;;;16.11;71.24;97026.75;5026671;28;20710;-74
2022/09/25 05:48:39;;;;;;;16.90;14.63;;;;;;;16.12;71.40;97027.53;5019627;28;20466;-74
2022/09/25 05:51:05;;;;;;;20.50;15.13;;;;;;;16.12;71.32;97028.38;5018602;28;20431;-73
2022/09/25 05:53:30;;;;;;;17.43;15.43;;;;;;;16.13;71.48;97029.97;5027391;28;20249;-75
2022/09/25 05:55:58;;;;;;;16.87;14.10;;;;;;;16.12;71.49;97028.38;5024643;28;20175;-72
2022/09/25 05:58:25;;;;;;;15.27;13.27;;;;;;;16.10;71.52;97022.47;5018131;28;20234;-74
2022/09/25 06:00:50;;;;;;;16.47;14.40;;;;;;;16.06;71.94;97023.03;5025962;28;20430;-73
2022/09/25 06:03:16;;;;;;;15.63;12.83;;;;;;;16.11;71.67;97023.25;5027217;28;20784;-72
2022/09/25 06:05:44;;;;;;;18.10;14.37;;;;;;;16.10;71.26;97024.28;5019032;28;20243;-74
2022/09/25 06:08:11;;;;;;;23.07;14.93;;;;;;;16.05;71.27;97027.50;5019701;28;20426;-74
2022/09/25 06:10:36;;;;;;;22.10;15.83;;;;;;;15.97;71.07;97025.00;5024271;28;20427;-74
2022/09/25 06:13:03;;;;;;;21.97;15.10;;;;;;;15.96;71.20;97026.81;5014695;28;20435;-74
2022/09/25 06:15:35;;;;;;;21.03;14.63;;;;;;;15.90;71.17;97021.47;5014158;28;20176;-74
2022/09/25 06:18:01;;;;;;;19.63;14.13;;;;;;;15.96;71.35;97020.72;5017267;28;20798;-74
2022/09/25 06:20:26;;;;;;;18.37;13.87;;;;;;;16.03;71.25;97018.94;5012489;28;20437;-74
2022/09/25 06:22:55;;;;;;;19.70;13.77;;;;;;;16.04;71.08;97023.22;5011735;28;20674;-73
2022/09/25 06:25:22;;;;;;;19.10;14.00;;;;;;;16.04;70.88;97028.50;5012613;28;20211;-72
2022/09/25 06:27:52;;;;;;;17.30;13.47;;;;;;;16.04;70.96;97030.34;5020047;28;20431;-73
2022/09/25 06:30:17;;;;;;;16.77;13.70;;;;;;;16.07;70.98;97027.28;5021140;28;20538;-73
2022/09/25 06:32:43;;;;;;;15.90;12.93;;;;;;;16.05;70.95;97027.50;5017189;28;20419;-75
2022/09/25 06:35:08;;;;;;;15.30;12.33;;;;;;;16.03;70.64;97031.34;5029073;28;20287;-74
2022/09/25 06:37:34;;;;;;;16.93;12.83;;;;;;;16.00;70.82;97029.91;5020985;28;20210;-74
2022/09/25 06:39:59;;;;;;;15.03;11.20;;;;;;;16.06;71.12;97031.78;5027456;28;20217;-74
2022/09/25 06:42:25;;;;;;;15.27;12.27;;;;;;;16.07;71.14;97035.22;5022077;28;20230;-74
2022/09/25 06:44:50;;;;;;;15.23;11.77;;;;;;;16.09;71.07;97033.22;5018685;28;20208;-72
2022/09/25 06:47:16;;;;;;;13.97;11.53;;;;;;;16.17;71.08;97034.91;5025728;28;20262;-74
2022/09/25 06:49:41;;;;;;;14.33;10.83;;;;;;;16.15;71.22;97031.63;5025000;28;20211;-76
2022/09/25 06:52:07;;;;;;;15.10;11.90;;;;;;;16.23;71.01;97031.50;5029578;28;20263;-74
2022/09/25 06:54:32;;;;;;;12.47;10.57;;;;;;;16.21;70.83;97030.88;5022070;28;20210;-72
2022/09/25 06:56:58;;;;;;;12.70;10.50;;;;;;;16.24;70.92;97030.50;5016632;28;20184;-74
2022/09/25 06:59:24;;;;;;;13.43;10.67;;;;;;;16.27;71.11;97035.38;5021394;28;20569;-73
2022/09/25 07:01:50;;;;;;;13.90;10.87;;;;;;;16.29;71.00;97033.34;5018320;28;20277;-73
2022/09/25 07:04:16;;;;;;;12.17;10.80;;;;;;;16.32;70.77;97043.56;5022561;28;20573;-73
2022/09/25 07:06:42;;;;;;;12.50;10.60;;;;;;;16.19;69.79;97038.16;5013358;28;20283;-75
2022/09/25 07:09:07;;;;;;;13.00;10.57;;;;;;;16.20;70.45;97040.63;5021920;28;20190;-74
2022/09/25 07:11:33;;;;;;;14.30;11.50;;;;;;;16.28;70.25;97037.00;5023063;28;20184;-76
2022/09/25 07:13:58;;;;;;;16.30;12.03;;;;;;;16.31;70.12;97033.97;5023931;28;20196;-74
2022/09/25 07:16:28;;;;;;;18.87;13.03;;;;;;;16.37;70.11;97046.44;5024648;28;20659;-76
2022/09/25 07:18:59;;;;;;;21.97;17.20;;;;;;;16.41;70.20;97042.38;5022156;28;20200;-75
2022/09/25 07:21:28;;;;;;;17.83;13.63;;;;;;;16.44;70.33;97041.22;5010572;28;20467;-75
2022/09/25 07:23:54;;;;;;;13.73;11.73;;;;;;;16.44;70.18;97041.22;5019174;28;20450;-74
2022/09/25 07:26:22;;;;;;;15.10;12.40;;;;;;;16.44;70.08;97035.91;5027598;28;20947;-75
2022/09/25 07:29:07;;;;;;;15.20;12.20;;;;;;;16.48;70.20;97029.22;5010427;28;20203;-73
2022/09/25 07:31:36;;;;;;;16.03;12.13;;;;;;;16.51;70.08;97030.63;5027905;28;20443;-72
2022/09/25 07:34:07;;;;;;;14.13;11.03;;;;;;;16.56;70.01;97033.53;5020458;28;20446;-74
2022/09/25 07:36:34;;;;;;;17.03;11.60;;;;;;;16.59;69.83;97035.78;5024008;28;20784;-74
2022/09/25 07:38:59;;;;;;;14.77;12.27;;;;;;;16.64;70.03;97032.56;5026629;28;20989;-75
2022/09/25 07:41:25;;;;;;;12.57;10.60;;;;;;;16.66;70.12;97036.63;5032743;28;20421;-76
2022/09/25 07:43:57;;;;;;;12.60;10.97;;;;;;;16.70;69.91;97045.81;5015710;28;20807;-75
2022/09/25 07:46:26;;;;;;;13.13;10.63;;;;;;;16.73;69.70;97039.31;5027662;28;20181;-76
2022/09/25 07:48:52;;;;;;;13.87;10.63;;;;;;;16.77;69.50;97034.44;5030035;28;20423;-74
2022/09/25 07:51:20;;;;;;;12.67;11.30;;;;;;;16.78;69.29;97036.09;5023552;28;20419;-75
2022/09/25 07:53:46;;;;;;;11.53;10.33;;;;;;;16.79;69.21;97033.25;5021864;28;20289;-75
2022/09/25 07:56:11;;;;;;;12.23;10.73;;;;;;;16.83;69.25;97039.78;5023527;28;20548;-75
2022/09/25 07:58:38;;;;;;;12.03;10.00;;;;;;;16.82;68.78;97037.34;5025401;28;20667;-76
2022/09/25 08:01:05;;;;;;;11.80;10.57;;;;;;;16.81;68.46;97041.00;5017753;28;20192;-74
2022/09/25 08:03:30;;;;;;;11.13;10.00;;;;;;;16.72;67.43;97045.63;5020507;28;20842;-74
2022/09/25 08:06:01;;;;;;;13.97;10.70;;;;;;;16.73;67.65;97045.44;5022999;28;20490;-74
2022/09/25 08:08:27;;;;;;;12.00;10.43;;;;;;;16.76;67.76;97046.06;5016963;28;20244;-75
2022/09/25 08:10:54;;;;;;;14.27;11.90;;;;;;;16.78;67.33;97044.03;5022153;28;20426;-75
2022/09/25 08:13:21;;;;;;;11.60;9.80;;;;;;;16.77;67.22;97043.22;5018422;28;20774;-76
2022/09/25 08:15:47;;;;;;;13.37;10.40;;;;;;;16.79;66.83;97043.00;5018385;28;20430;-75
2022/09/25 08:18:13;;;;;;;14.10;11.50;;;;;;;16.82;66.92;97043.44;5023885;28;20421;-75
2022/09/25 08:20:39;;;;;;;13.30;10.70;;;;;;;16.85;67.24;97043.03;5027526;28;20434;-75
2022/09/25 08:23:05;;;;;;;10.63;9.53;;;;;;;16.90;67.55;97045.09;5032003;28;20182;-75
2022/09/25 08:25:30;;;;;;;11.50;10.27;;;;;;;16.92;67.71;97047.56;5033386;28;20199;-75
2022/09/25 08:27:56;;;;;;;14.90;11.47;;;;;;;16.93;67.78;97043.91;5032655;28;20476;-75
2022/09/25 08:30:21;;;;;;;13.33;10.10;;;;;;;16.98;67.98;97041.50;5032876;28;20179;-76
2022/09/25 08:32:47;;;;;;;10.77;9.63;;;;;;;16.99;67.18;97049.25;5028626;28;20653;-75
2022/09/25 08:35:13;;;;;;;11.87;9.60;;;;;;;17.02;67.06;97043.56;5018146;28;20223;-74
2022/09/25 08:37:40;;;;;;;10.90;9.40;;;;;;;17.08;67.14;97041.13;5018375;28;20268;-75
2022/09/25 08:40:17;;;;;;;12.73;10.80;;;;;;;17.17;66.93;97042.59;5018774;28;20422;-76
2022/09/25 08:42:43;;;;;;;12.70;11.10;;;;;;;17.26;66.92;97043.25;5014730;28;20423;-75
2022/09/25 08:51:13;;;;;;;13.10;10.13;;;;;;;17.45;66.51;97036.38;5021523;28;20412;-76
2022/09/25 08:53:39;;;;;;;8.60;7.20;;;;;;;17.43;65.57;97031.28;5025307;28;20461;-74
2022/09/25 08:56:14;;;;;;;7.57;6.87;;;;;;;17.47;65.07;97029.84;5017514;28;20722;-76
2022/09/25 08:58:44;;;;;;;7.43;6.73;;;;;;;17.49;65.32;97033.13;5018496;28;20987;-74
2022/09/25 09:01:13;;;;;;;7.70;6.93;;;;;;;17.57;65.26;97028.66;5014441;28;20450;-75
2022/09/25 09:03:54;;;;;;;7.90;7.10;;;;;;;17.56;64.10;97022.53;5021950;28;20442;-74
2022/09/25 09:06:21;;;;;;;8.57;7.40;;;;;;;17.62;63.18;97031.50;5008603;28;21136;-74
2022/09/25 09:08:52;;;;;;;7.40;6.63;;;;;;;17.69;62.96;97028.88;5025128;28;20955;-75
2022/09/25 09:11:22;;;;;;;9.00;6.93;;;;;;;17.73;62.88;97035.41;5025949;28;20477;-73
2022/09/25 09:14:01;;;;;;;7.30;6.60;;;;;;;17.74;62.47;97031.75;5018661;28;20522;-75
2022/09/25 09:16:36;;;;;;;7.53;6.67;;;;;;;17.81;62.43;97027.25;5026747;28;20426;-74
2022/09/25 09:19:03;;;;;;;8.93;7.10;;;;;;;17.88;62.29;97032.56;5025544;28;20419;-74
2022/09/25 09:21:36;;;;;;;8.33;7.63;;;;;;;17.92;62.17;97036.44;5031106;28;20999;-75
2022/09/25 09:24:07;;;;;;;9.20;7.23;;;;;;;17.96;62.14;97038.47;5029464;28;21027;-74
2022/09/25 09:26:50;;;;;;;10.57;8.20;;;;;;;18.01;61.76;97029.94;5020995;28;20953;-74
2022/09/25 09:29:28;;;;;;;7.97;7.20;;;;;;;18.05;61.59;97030.34;5014138;28;20462;-74
2022/09/25 09:32:15;;;;;;;9.37;7.00;;;;;;;18.12;61.38;97025.88;5019888;28;21000;-75
2022/09/25 09:34:44;;;;;;;8.90;6.93;;;;;;;18.14;60.67;97023.81;5027870;28;20838;-73
2022/09/25 09:37:40;;;;;;;8.83;7.10;;;;;;;18.15;59.70;97028.09;5019219;28;20514;-74
2022/09/25 09:40:24;;;;;;;9.87;6.90;;;;;;;18.17;60.12;97014.63;5023540;28;20810;-73
2022/09/25 09:43:21;;;;;;;7.50;6.80;;;;;;;18.23;59.94;97016.47;5022277;28;20408;-74
2022/09/25 09:45:55;;;;;;;8.30;6.87;;;;;;;18.30;60.02;97013.78;5011631;28;20512;-73
2022/09/25 09:48:38;;;;;;;8.47;6.97;;;;;;;18.31;59.08;97015.44;5020695;28;20505;-74
2022/09/25 09:51:20;;;;;;;8.07;7.27;;;;;;;18.32;58.10;97023.19;5023395;28;20418;-73
2022/09/25 09:53:53;;;;;;;8.40;7.20;;;;;;;18.38;58.59;97019.72;5021064;28;20505;-74
2022/09/25 09:56:22;;;;;;;8.53;6.30;;;;;;;18.41;58.51;97021.13;5012983;28;20423;-76
2022/09/25 09:58:56;;;;;;;8.40;7.60;;;;;;;18.40;58.34;97025.63;5027552;28;20426;-73
2022/09/25 10:01:24;;;;;;;8.03;6.37;;;;;;;18.41;58.38;97023.78;5021224;28;20412;-74
2022/09/25 10:04:04;;;;;;;7.47;6.70;;;;;;;18.41;58.96;97023.78;5024171;28;20442;-74
2022/09/25 10:06:32;;;;;;;8.03;7.17;;;;;;;18.38;59.49;97017.06;5015501;28;20458;-75
2022/09/25 10:08:58;;;;;;;8.60;6.90;;;;;;;18.38;59.45;97013.59;5013001;28;20446;-75
2022/09/25 10:11:24;;;;;;;6.40;5.90;;;;;;;18.42;59.29;97015.63;5018679;28;20459;-75
2022/09/25 10:13:50;;;;;;;9.67;7.23;;;;;;;18.49;59.18;97012.13;5015869;28;20966;-75
2022/09/25 10:16:18;;;;;;;7.23;6.53;;;;;;;18.61;59.09;97009.66;5022045;28;20480;-74
2022/09/25 10:18:59;;;;;;;8.33;6.77;;;;;;;18.71;58.67;97008.19;5017267;28;20187;-74
2022/09/25 10:21:29;;;;;;;7.87;6.63;;;;;;;18.79;58.04;97009.78;5031500;28;20881;-75
2022/09/25 10:23:57;;;;;;;7.27;6.53;;;;;;;18.84;57.72;97004.69;5029601;28;20896;-75
2022/09/25 10:26:36;;;;;;;9.40;6.90;;;;;;;18.90;57.35;97007.53;5029042;28;20476;-76
2022/09/25 10:29:20;;;;;;;8.43;6.83;;;;;;;18.85;57.33;97003.66;5030382;28;20430;-74
2022/09/25 10:31:46;;;;;;;6.90;6.30;;;;;;;18.81;56.74;97001.63;5025199;28;20470;-75
2022/09/25 10:34:11;;;;;;;8.20;6.50;;;;;;;18.72;57.38;97007.16;5029393;28;20839;-76
2022/09/25 10:36:42;;;;;;;9.13;6.77;;;;;;;18.67;57.68;97012.31;5030501;28;20366;-74
2022/09/25 10:39:30;;;;;;;7.73;6.47;;;;;;;18.65;57.63;97014.34;5029185;28;20654;-74
2022/09/25 10:41:59;;;;;;;8.20;7.20;;;;;;;18.60;57.24;97021.28;5032424;28;20460;-74
2022/09/25 10:44:37;;;;;;;10.10;7.20;;;;;;;18.58;56.97;97013.56;5020639;28;20458;-76
2022/09/25 10:50:19;;;;;;;7.20;6.27;;;;;;;18.60;58.19;97024.75;5026924;28;20456;-75
2022/09/25 10:52:48;;;;;;;10.43;7.17;;;;;;;18.61;57.90;97028.25;5019460;28;20419;-75
2022/09/25 10:55:38;;;;;;;11.13;7.47;;;;;;;18.55;58.21;97014.75;5011163;28;21011;-74
2022/09/25 10:58:09;;;;;;;7.33;6.63;;;;;;;18.51;58.47;97021.53;5017269;28;20447;-73
2022/09/25 11:00:50;;;;;;;8.40;6.70;;;;;;;18.51;58.46;97018.88;5017917;28;20888;-74
2022/09/25 11:03:21;;;;;;;12.37;6.80;;;;;;;18.50;58.52;97030.50;5023193;28;20503;-74
2022/09/25 11:05:51;;;;;;;7.90;7.10;;;;;;;18.49;58.74;97025.41;5008033;28;20462;-75
2022/09/25 11:08:17;;;;;;;7.10;6.40;;;;;;;18.45;59.23;97032.97;5015117;28;20819;-75
2022/09/25 11:10:54;;;;;;;7.23;6.47;;;;;;;18.44;59.45;97027.88;5024059;28;20461;-76
2022/09/25 11:13:25;;;;;;;9.70;7.03;;;;;;;18.37;59.83;97028.69;5019376;28;20985;-76
2022/09/25 11:15:52;;;;;;;9.13;6.87;;;;;;;18.36;60.15;97034.22;5020522;28;20434;-76
2022/09/25 11:18:48;;;;;;;8.97;7.43;;;;;;;18.32;60.22;97035.63;5025578;28;20415;-76
2022/09/25 11:21:16;;;;;;;10.70;7.50;;;;;;;18.27;60.26;97033.59;5022981;28;20430;-75
2022/09/25 11:23:55;;;;;;;9.10;7.90;;;;;;;18.20;60.55;97040.75;5020376;28;20443;-76
2022/09/25 11:26:25;;;;;;;10.20;7.90;;;;;;;18.16;60.84;97037.69;5015308;28;20518;-74
2022/09/25 11:29:03;;;;;;;10.17;8.03;;;;;;;18.13;61.17;97035.47;5022386;28;20918;-74
2022/09/25 11:31:36;;;;;;;10.80;7.50;;;;;;;18.18;61.21;97027.69;5015525;28;20457;-76
2022/09/25 11:34:06;;;;;;;9.07;8.17;;;;;;;18.20;61.38;97028.31;5019379;28;20442;-75
2022/09/25 11:36:45;;;;;;;10.03;8.93;;;;;;;18.20;61.20;97033.59;5018900;28;20438;-76
2022/09/25 11:42:15;;;;;;;15.27;10.67;;;;;;;18.19;61.15;97029.31;5018656;28;20480;-75
2022/09/25 11:45:21;;;;;;;15.17;11.07;;;;;;;18.20;61.07;97032.81;5015838;28;20481;-75
2022/09/25 11:48:04;;;;;;;23.00;16.17;;;;;;;18.17;60.79;97034.00;5011474;28;20465;-76
2022/09/25 11:50:47;;;;;;;20.87;14.17;;;;;;;18.13;61.20;97040.75;4986354;28;20879;-77
2022/09/25 11:53:34;;;;;;;28.00;16.37;;;;;;;18.13;61.09;97030.16;5022191;28;20478;-75
2022/09/25 11:56:12;;;;;;;27.00;20.13;;;;;;;18.10;61.12;97026.06;5023764;28;20442;-76